createdAt,value
2023-05-12T00:02:39.582Z,60.43
2023-05-12T00:05:41.849Z,60.67
2023-05-12T00:08:44.116Z,60.83
2023-05-12T00:11:48.380Z,60.82
2023-05-12T00:14:50.728Z,60.51
2023-05-12T00:17:53.021Z,60.35
2023-05-12T00:20:55.707Z,60.31
2023-05-12T00:23:57.966Z,58.99
2023-05-12T00:27:00.909Z,59.39
2023-05-12T00:30:03.531Z,59.38
2023-05-12T00:33:05.871Z,59.63
2023-05-12T00:36:08.720Z,59.67
2023-05-12T00:39:10.997Z,60.10
2023-05-12T00:42:13.491Z,59.71
2023-05-12T00:45:15.856Z,59.90
2023-05-12T00:48:18.434Z,58.71
2023-05-12T00:51:20.897Z,59.35
2023-05-12T00:54:23.245Z,59.13
2023-05-12T00:57:26.381Z,59.88
2023-05-12T01:00:29.086Z,59.50
2023-05-12T01:03:31.635Z,59.46
2023-05-12T01:06:42.796Z,59.14
2023-05-12T01:09:45.595Z,59.61
2023-05-12T01:12:48.352Z,59.95
2023-05-12T01:15:52.256Z,59.59
2023-05-12T01:18:56.390Z,59.88
2023-05-12T01:21:59.195Z,60.17
2023-05-12T01:25:07.814Z,60.73
2023-05-12T01:28:11.076Z,59.69
2023-05-12T01:31:14.782Z,60.20
2023-05-12T01:34:18.507Z,59.79
2023-05-12T01:37:26.607Z,59.93
2023-05-12T01:40:29.902Z,60.37
2023-05-12T01:43:33.093Z,60.61
2023-05-12T01:46:35.540Z,60.98
2023-05-12T01:49:38.118Z,61.88
2023-05-12T01:52:43.488Z,61.68
2023-05-12T01:55:48.134Z,62.03
2023-05-12T01:58:51.017Z,62.71
2023-05-12T02:01:53.471Z,63.26
2023-05-12T02:05:02.742Z,63.20
2023-05-12T02:08:05.175Z,62.69
2023-05-12T02:11:08.568Z,63.04
2023-05-12T02:14:11.448Z,62.74
2023-05-12T02:17:14.080Z,62.88
2023-05-12T02:20:16.669Z,62.52
2023-05-12T02:23:18.973Z,63.12
2023-05-12T02:26:21.671Z,62.52
2023-05-12T02:29:23.989Z,62.78
2023-05-12T02:32:28.603Z,62.81
2023-05-12T02:35:31.798Z,63.31
2023-05-12T02:38:34.137Z,63.67
2023-05-12T02:41:36.942Z,63.09
2023-05-12T02:44:39.215Z,63.16
2023-05-12T02:47:41.990Z,63.00
2023-05-12T02:50:44.896Z,63.14
2023-05-12T02:53:47.136Z,62.69
2023-05-12T02:56:49.378Z,63.05
2023-05-12T02:59:51.632Z,62.42
2023-05-12T03:02:53.929Z,63.17
2023-05-12T03:05:56.197Z,62.58
2023-05-12T03:08:59.793Z,62.66
2023-05-12T03:12:02.079Z,62.92
2023-05-12T03:15:05.012Z,62.75
2023-05-12T03:18:07.432Z,63.30
2023-05-12T03:21:09.722Z,62.74
2023-05-12T03:24:12.069Z,63.23
2023-05-12T03:27:14.295Z,63.26
2023-05-12T03:30:16.637Z,62.87
2023-05-12T03:33:18.902Z,63.69
2023-05-12T03:36:21.577Z,63.87
2023-05-12T03:39:24.978Z,63.92
2023-05-12T03:42:28.584Z,63.37
2023-05-12T03:45:31.031Z,64.62
2023-05-12T03:48:33.204Z,64.01
2023-05-12T03:51:35.549Z,64.75
2023-05-12T03:54:38.071Z,64.89
2023-05-12T03:57:40.436Z,64.59
2023-05-12T04:00:44.156Z,64.96
2023-05-12T04:03:46.753Z,64.57
2023-05-12T04:06:49.134Z,65.27
2023-05-12T04:09:51.367Z,65.14
2023-05-12T04:12:54.640Z,64.81
2023-05-12T04:16:00.787Z,64.58
2023-05-12T04:19:03.527Z,65.10
2023-05-12T04:22:06.138Z,65.27
2023-05-12T04:25:08.872Z,65.11
2023-05-12T04:28:12.287Z,64.60
2023-05-12T04:31:15.417Z,65.86
2023-05-12T04:34:18.354Z,65.21
2023-05-12T04:37:22.325Z,65.44
2023-05-12T04:40:24.899Z,64.84
2023-05-12T04:46:33.130Z,65.05
2023-05-12T04:49:36.186Z,65.06
2023-05-12T04:52:38.636Z,65.64
2023-05-12T04:55:40.998Z,65.93
2023-05-12T04:58:43.257Z,65.17
2023-05-12T05:01:45.902Z,65.15
2023-05-12T05:04:49.552Z,65.82
2023-05-12T05:07:52.253Z,65.43
2023-05-12T05:10:54.977Z,65.71
2023-05-12T05:13:57.298Z,65.72
2023-05-12T05:17:00.192Z,65.52
2023-05-12T05:20:09.455Z,65.41
2023-05-12T05:23:13.977Z,65.20
2023-05-12T05:26:17.234Z,65.21
2023-05-12T05:29:19.831Z,66.33
2023-05-12T05:32:22.266Z,65.17
2023-05-12T05:35:24.896Z,65.27
2023-05-12T05:38:28.442Z,66.40
2023-05-12T05:41:30.647Z,65.71
2023-05-12T05:44:33.078Z,65.37
2023-05-12T05:47:37.636Z,66.18
2023-05-12T05:50:40.750Z,65.67
2023-05-12T05:53:43.111Z,65.34
2023-05-12T05:56:46.152Z,64.60
2023-05-12T05:59:48.427Z,64.26
2023-05-12T06:02:51.392Z,64.41
2023-05-12T06:05:56.281Z,64.58
2023-05-12T06:08:59.263Z,65.07
2023-05-12T06:12:02.341Z,65.68
2023-05-12T06:15:04.986Z,66.09
2023-05-12T06:18:07.598Z,66.06
2023-05-12T06:21:10.002Z,65.66
2023-05-12T06:24:12.322Z,65.79
2023-05-12T06:27:14.562Z,66.23
2023-05-12T06:30:16.947Z,65.72
2023-05-12T06:33:19.201Z,65.93
2023-05-12T06:36:21.509Z,65.38
2023-05-12T06:39:23.807Z,65.58
2023-05-12T06:42:26.038Z,64.75
2023-05-12T06:45:28.336Z,64.82
2023-05-12T06:48:30.621Z,65.24
2023-05-12T06:51:34.024Z,65.42
2023-05-12T06:54:36.242Z,64.92
2023-05-12T06:57:38.466Z,65.04
2023-05-12T07:00:40.701Z,64.78
2023-05-12T07:03:43.023Z,64.46
2023-05-12T07:06:45.341Z,64.28
2023-05-12T07:09:47.623Z,64.08
2023-05-12T07:12:49.917Z,64.09
2023-05-12T07:15:52.206Z,64.59
2023-05-12T07:18:54.779Z,64.07
2023-05-12T07:21:57.090Z,64.12
2023-05-12T07:24:59.362Z,64.27
2023-05-12T07:28:01.645Z,64.79
2023-05-12T07:31:04.709Z,63.75
2023-05-12T07:34:07.305Z,64.29
2023-05-12T07:37:09.779Z,64.01
2023-05-12T07:40:12.239Z,64.55
2023-05-12T07:43:14.476Z,63.96
2023-05-12T07:46:16.768Z,63.99
2023-05-12T07:49:27.880Z,64.04
2023-05-12T07:52:30.079Z,62.47
2023-05-12T07:55:35.102Z,62.58
2023-05-12T07:58:37.417Z,62.96
2023-05-12T08:01:39.781Z,62.14
2023-05-12T08:04:44.368Z,61.57
2023-05-12T08:07:47.245Z,62.06
2023-05-12T08:10:49.506Z,60.84
2023-05-12T08:13:51.886Z,60.41
2023-05-12T08:16:54.150Z,60.63
2023-05-12T08:19:56.512Z,61.03
2023-05-12T08:22:58.968Z,59.97
2023-05-12T08:26:01.826Z,59.46
2023-05-12T08:29:08.720Z,60.71
2023-05-12T08:32:11.263Z,60.31
2023-05-12T08:35:13.722Z,59.15
2023-05-12T08:38:16.400Z,58.87
2023-05-12T08:41:22.962Z,58.58
2023-05-12T08:44:25.774Z,60.07
2023-05-12T08:47:29.467Z,60.86
2023-05-12T08:50:32.760Z,61.26
2023-05-12T08:53:36.940Z,60.64
2023-05-12T08:59:46.055Z,60.87
2023-05-12T09:02:54.121Z,60.98
2023-05-12T09:05:58.301Z,62.04
2023-05-12T09:09:00.584Z,64.01
2023-05-12T09:12:03.453Z,65.35
2023-05-12T09:15:10.626Z,66.44
2023-05-12T09:18:12.949Z,65.82
2023-05-12T09:21:15.380Z,66.24
2023-05-12T09:24:21.117Z,65.92
2023-05-12T09:27:29.978Z,65.96
2023-05-12T09:30:35.492Z,65.27
2023-05-12T09:33:37.774Z,67.99
2023-05-12T09:36:40.063Z,68.85
2023-05-12T09:39:42.316Z,69.23
2023-05-12T09:42:44.585Z,70.50
2023-05-12T09:45:50.015Z,70.90
2023-05-12T09:48:56.245Z,70.00
2023-05-12T09:51:59.205Z,68.88
2023-05-12T09:55:09.939Z,69.27
2023-05-12T09:58:15.814Z,69.06
2023-05-12T10:01:23.368Z,68.27
2023-05-12T10:04:27.573Z,68.01
2023-05-12T10:07:30.243Z,68.13
2023-05-12T10:10:33.072Z,68.49
2023-05-12T10:13:35.396Z,68.88
2023-05-12T10:16:38.429Z,69.16
2023-05-12T10:19:42.202Z,68.36
2023-05-12T10:22:44.841Z,69.41
2023-05-12T10:25:47.856Z,69.10
2023-05-12T10:28:50.694Z,68.58
2023-05-12T10:31:52.921Z,68.77
2023-05-12T10:34:56.404Z,67.96
2023-05-12T10:38:03.631Z,68.12
2023-05-12T10:41:06.719Z,68.99
2023-05-12T10:44:10.790Z,68.21
2023-05-12T10:47:14.718Z,68.24
2023-05-12T10:50:26.967Z,68.12
2023-05-12T10:53:47.737Z,67.96
2023-05-12T10:56:53.327Z,66.74
2023-05-12T11:00:00.347Z,67.39
2023-05-12T11:03:09.932Z,67.21
2023-05-12T11:06:19.346Z,67.65
2023-05-12T11:09:22.033Z,67.34
2023-05-12T11:12:26.769Z,67.11
2023-05-12T11:15:29.823Z,67.31
2023-05-12T11:18:31.930Z,66.82
2023-05-12T11:21:34.136Z,67.36
2023-05-12T11:24:37.556Z,67.88
2023-05-12T11:27:42.571Z,66.91
2023-05-12T11:30:55.028Z,67.28
2023-05-12T11:34:13.114Z,67.63
2023-05-12T11:37:15.839Z,67.66
2023-05-12T11:40:22.362Z,67.05
2023-05-12T11:43:24.722Z,67.31
2023-05-12T11:46:30.145Z,67.72
2023-05-12T11:49:32.926Z,66.88
2023-05-12T11:52:35.146Z,68.11
2023-05-12T11:55:37.422Z,67.69
2023-05-12T11:58:39.678Z,67.99
2023-05-12T12:01:48.911Z,67.23
2023-05-12T12:04:51.211Z,67.57
2023-05-12T12:08:04.738Z,67.14
2023-05-12T12:11:07.540Z,67.51
2023-05-12T12:14:09.800Z,66.89
2023-05-12T12:17:12.011Z,66.99
2023-05-12T12:20:14.204Z,66.76
2023-05-12T12:23:16.548Z,66.84
2023-05-12T12:26:21.061Z,67.07
2023-05-12T12:29:24.770Z,67.12
2023-05-12T12:32:27.197Z,67.56
2023-05-12T12:35:29.478Z,67.26
2023-05-12T12:38:32.260Z,67.99
2023-05-12T12:41:34.505Z,68.02
2023-05-12T12:44:36.862Z,67.66
2023-05-12T12:47:39.238Z,69.15
2023-05-12T12:50:41.544Z,69.04
2023-05-12T12:53:45.687Z,68.05
2023-05-12T12:56:47.953Z,67.46
2023-05-12T12:59:50.710Z,68.25
2023-05-12T13:02:53.417Z,66.80
2023-05-12T13:05:55.804Z,67.16
2023-05-12T13:08:58.061Z,68.07
2023-05-12T13:12:01.013Z,67.76
2023-05-12T13:15:03.359Z,69.28
2023-05-12T13:18:05.535Z,68.76
2023-05-12T13:21:08.023Z,69.42
2023-05-12T13:24:10.369Z,69.33
2023-05-12T13:27:12.621Z,69.48
2023-05-12T13:30:15.021Z,69.49
2023-05-12T13:33:17.653Z,69.88
2023-05-12T13:36:20.069Z,70.07
2023-05-12T13:39:22.271Z,69.28
2023-05-12T13:42:24.530Z,69.12
2023-05-12T13:45:27.313Z,69.79
2023-05-12T13:48:30.122Z,69.39
2023-05-12T13:51:32.558Z,69.75
2023-05-12T13:54:34.929Z,69.82
2023-05-12T13:57:37.218Z,70.16
2023-05-12T14:00:39.480Z,69.00
2023-05-12T14:03:42.266Z,68.73
2023-05-12T14:06:44.557Z,68.00
2023-05-12T14:09:46.841Z,68.63
2023-05-12T14:12:49.431Z,69.68
2023-05-12T14:15:53.348Z,70.90
2023-05-12T14:18:58.666Z,71.56
2023-05-12T14:22:00.921Z,70.76
2023-05-12T14:25:03.647Z,69.54
2023-05-12T14:28:05.953Z,69.87
2023-05-12T14:31:08.502Z,69.28
2023-05-12T14:34:11.938Z,70.47
2023-05-12T14:37:14.164Z,72.56
2023-05-12T14:40:16.449Z,72.48
2023-05-12T14:43:19.027Z,71.68
2023-05-12T14:46:21.621Z,71.80
2023-05-12T14:49:23.877Z,72.51
2023-05-12T14:52:26.279Z,73.79
2023-05-12T14:55:29.849Z,74.95
2023-05-12T14:58:32.191Z,74.16
2023-05-12T15:01:34.531Z,73.94
2023-05-12T15:04:36.743Z,73.17
2023-05-12T15:07:39.258Z,72.43
2023-05-12T15:10:41.546Z,72.69
2023-05-12T15:13:43.866Z,72.78
2023-05-12T15:16:46.257Z,72.56
2023-05-12T15:19:48.559Z,72.12
2023-05-12T15:22:52.269Z,72.58
2023-05-12T15:25:54.494Z,71.68
2023-05-12T15:28:56.716Z,71.87
2023-05-12T15:31:59.093Z,72.00
2023-05-12T15:35:01.394Z,72.22
2023-05-12T15:38:03.691Z,72.10
2023-05-12T15:41:06.136Z,70.72
2023-05-12T15:44:08.506Z,70.86
2023-05-12T15:47:10.805Z,70.44
2023-05-12T15:50:16.262Z,70.93
2023-05-12T15:53:18.498Z,70.52
2023-05-12T15:56:21.925Z,71.52
2023-05-12T15:59:24.165Z,71.73
2023-05-12T16:02:26.455Z,70.18
2023-05-12T16:05:28.773Z,69.53
2023-05-12T16:08:31.864Z,69.69
2023-05-12T16:11:34.464Z,69.74
2023-05-12T16:14:36.672Z,69.38
2023-05-12T16:17:38.964Z,69.78
2023-05-12T16:20:41.886Z,70.07
2023-05-12T16:23:44.215Z,70.35
2023-05-12T16:26:47.258Z,70.80
2023-05-12T16:29:52.608Z,69.55
2023-05-12T16:32:55.194Z,69.72
2023-05-12T16:35:57.625Z,69.93
2023-05-12T16:38:59.993Z,69.99
2023-05-12T16:42:02.663Z,69.53
2023-05-12T16:45:05.242Z,69.79
2023-05-12T16:48:07.438Z,69.02
2023-05-12T16:51:12.755Z,69.36
2023-05-12T16:54:15.093Z,68.63
2023-05-12T16:57:18.577Z,68.71
2023-05-12T17:00:21.055Z,69.03
2023-05-12T17:03:23.602Z,68.93
2023-05-12T17:06:25.971Z,69.31
2023-05-12T17:09:28.179Z,68.87
2023-05-12T17:12:30.416Z,68.98
2023-05-12T17:15:32.653Z,69.62
2023-05-12T17:19:13.627Z,69.79
2023-05-12T17:21:57.091Z,69.68
2023-05-12T17:24:59.289Z,70.14
2023-05-12T17:28:01.546Z,69.26
2023-05-12T17:31:03.951Z,69.61
2023-05-12T17:34:06.347Z,69.98
2023-05-12T17:37:08.637Z,70.03
2023-05-12T17:40:15.894Z,69.50
2023-05-12T17:43:18.489Z,71.16
2023-05-12T17:46:20.781Z,70.66
2023-05-12T17:49:23.128Z,70.43
2023-05-12T17:52:25.755Z,70.50
2023-05-12T17:55:28.075Z,71.78
2023-05-12T17:58:30.379Z,71.47
2023-05-12T18:01:32.876Z,71.24
2023-05-12T18:04:35.240Z,71.70
2023-05-12T18:07:37.594Z,71.40
2023-05-12T18:10:41.355Z,71.59
2023-05-12T18:13:43.639Z,71.84
2023-05-12T18:16:45.946Z,72.26
2023-05-12T18:19:48.427Z,71.93
2023-05-12T18:22:51.731Z,71.66
2023-05-12T18:25:53.954Z,71.31
2023-05-12T18:28:56.269Z,70.75
2023-05-12T18:31:58.551Z,71.19
2023-05-12T18:35:00.817Z,71.13
2023-05-12T18:38:03.172Z,70.90
2023-05-12T18:41:05.441Z,71.45
2023-05-12T18:44:08.878Z,71.34
2023-05-12T18:47:11.307Z,70.78
2023-05-12T18:50:13.521Z,70.91
2023-05-12T18:53:16.043Z,71.09
2023-05-12T18:56:18.263Z,70.87
2023-05-12T18:59:20.512Z,71.02
2023-05-12T19:02:25.074Z,71.16
2023-05-12T19:05:27.423Z,70.72
2023-05-12T19:08:29.736Z,70.84
2023-05-12T19:11:31.939Z,71.24
2023-05-12T19:14:34.578Z,70.83
2023-05-12T19:17:36.890Z,71.46
2023-05-12T19:20:39.214Z,71.57
2023-05-12T19:23:41.519Z,71.60
2023-05-12T19:26:43.704Z,70.39
2023-05-12T19:29:46.036Z,70.73
2023-05-12T19:32:50.091Z,70.52
2023-05-12T19:35:52.560Z,70.68
2023-05-12T19:38:54.808Z,70.01
2023-05-12T19:41:57.060Z,69.43
2023-05-12T19:45:00.539Z,70.49
2023-05-12T19:48:02.967Z,70.00
2023-05-12T19:51:05.270Z,69.85
2023-05-12T19:54:09.521Z,70.07
2023-05-12T19:57:11.811Z,69.58
2023-05-12T20:00:14.352Z,70.00
2023-05-12T20:03:18.948Z,70.43
2023-05-12T20:06:22.503Z,69.99
2023-05-12T20:09:25.914Z,70.15
2023-05-12T20:12:28.564Z,70.41
2023-05-12T20:15:31.410Z,70.29
2023-05-12T20:18:33.710Z,70.28
2023-05-12T20:21:35.922Z,70.83
2023-05-12T20:24:38.143Z,71.11
2023-05-12T20:27:40.362Z,70.68
2023-05-12T20:30:42.554Z,71.09
2023-05-12T20:33:44.786Z,70.80
2023-05-12T20:36:47.322Z,70.68
2023-05-12T20:39:49.652Z,70.94
2023-05-12T20:42:51.877Z,71.68
2023-05-12T20:45:54.127Z,71.36
2023-05-12T20:48:57.121Z,71.37
2023-05-12T20:51:59.343Z,71.00
2023-05-12T20:55:02.722Z,71.48
2023-05-12T20:58:04.976Z,71.24
2023-05-12T21:01:07.250Z,71.64
2023-05-12T21:04:09.909Z,71.64
2023-05-12T21:07:12.212Z,71.92
2023-05-12T21:10:14.590Z,72.59
2023-05-12T21:13:17.031Z,71.65
2023-05-12T21:16:19.291Z,72.14
2023-05-12T21:19:21.604Z,71.94
2023-05-12T21:22:23.774Z,71.55
2023-05-12T21:25:26.076Z,72.08
2023-05-12T21:28:28.276Z,71.72
2023-05-12T21:31:30.755Z,71.69
2023-05-12T21:34:33.774Z,71.90
2023-05-12T21:37:36.089Z,72.02
2023-05-12T21:40:38.627Z,72.15
2023-05-12T21:43:40.837Z,71.55
2023-05-12T21:46:43.402Z,71.72
2023-05-12T21:49:45.970Z,71.84
2023-05-12T21:52:48.714Z,71.80
2023-05-12T21:55:50.981Z,72.07
2023-05-12T21:58:53.205Z,72.14
2023-05-12T22:01:56.114Z,71.74
2023-05-12T22:04:58.432Z,71.38
2023-05-12T22:08:00.829Z,72.60
2023-05-12T22:11:03.581Z,72.41
2023-05-12T22:14:05.768Z,72.19
2023-05-12T22:17:08.141Z,72.59
2023-05-12T22:20:11.166Z,72.63
2023-05-12T22:23:13.898Z,72.62
2023-05-12T22:26:16.308Z,71.97
2023-05-12T22:29:18.537Z,72.34
2023-05-12T22:32:20.865Z,72.42
2023-05-12T22:35:23.124Z,72.02
2023-05-12T22:38:25.380Z,71.95
2023-05-12T22:41:27.625Z,71.80
2023-05-12T22:44:29.831Z,71.57
2023-05-12T22:47:32.363Z,72.01
2023-05-12T22:50:34.752Z,71.92
2023-05-12T22:53:37.231Z,71.96
2023-05-12T22:56:39.519Z,71.26
2023-05-12T22:59:41.731Z,71.71
2023-05-12T23:02:44.316Z,71.67
2023-05-12T23:05:46.613Z,71.62
2023-05-12T23:08:49.427Z,71.49
2023-05-12T23:11:51.987Z,71.63
2023-05-12T23:14:54.085Z,72.11
2023-05-12T23:17:56.358Z,72.09
2023-05-12T23:20:58.597Z,71.54
2023-05-12T23:24:00.859Z,71.05
2023-05-12T23:27:03.509Z,71.03
2023-05-12T23:30:06.542Z,72.00
2023-05-12T23:33:08.697Z,71.77
2023-05-12T23:36:10.759Z,70.99
2023-05-12T23:39:13.637Z,71.26
2023-05-12T23:42:17.118Z,71.14
2023-05-12T23:45:19.428Z,71.68
2023-05-12T23:48:21.660Z,72.12
2023-05-12T23:51:24.172Z,71.83
2023-05-12T23:54:26.468Z,71.92
2023-05-12T23:57:28.693Z,71.44
